Clear Lake, Iowa
Current Conditions -  °F | °C
As of 1:53 AM on Wednesday 22 Oct 2014 (Local Time) from KMCW Reporting Station
Clear Clear  
Wind Chill:   Ceiling: Unl
Heat Index:   Visibility: 10mi
Dew Point:   Wind: 8mph
Humidity: 89%   Direction: 150°SSE
Pressure: 30.21"   Gusts: NA
Location:  43.13°N, 93.38°W
Report Text: KMCW 220653Z AUTO 15007KT 10SM CLR 04/03 A3021 RMK AO2 SLP229 T00440028
Loading
Personal Weather Stations






























Interactive Weather Map
Tropical Storm Tracking
New forecast layout! Learn more

10-Day Weather Forecast

Advertisements
Track Severe Weather on mobile